Oyama, Canada
Current Conditions -  °F | °C
As of 4:11 PM on Friday 21 Nov 2014 (Local Time) from CYLW Reporting Station
Overcast Overcast  
Wind Chill: 37°   Ceiling: 6500
Heat Index: 37°   Visibility: 9mi
Dew Point: 30°   Wind: 3mph
Humidity: 75%   Direction: 150°SSE
Pressure: 29.55"   Gusts: NA
Location:  50.11°N, 119.37°W
Report Text: CYLW 220011Z AUTO 15003KT 9SM SCT016 OVC065 03/M01 A2955 RMK PRESFR SLP019
Loading
Personal Weather Stations






























Interactive Weather Map New forecast layout! Learn more

10-Day Weather Forecast

Advertisements
Track Severe Weather on mobile